Time;durP1;ratioP1;P1;durP2;ratioP2;P2;SDS_P1;SDS_P2;PMS_P1;PMS_P2;Temp;Humidity;BMP_temperature;BMP_pressure;BME280_temperature;BME280_humidity;BME280_pressure;Samples;Min_cycle;Max_cycle;Signal;HPM_P1;HPM_P2
2021/06/07 00:00:40;;;;;;;1.20;1.10;;;14.80;99.90;;;;;;4972833;28;20058;-71
2021/06/07 00:03:06;;;;;;;1.30;1.08;;;14.80;99.90;;;;;;4973358;28;20038;-72
2021/06/07 00:05:32;;;;;;;3.83;1.10;;;14.70;99.90;;;;;;4973958;28;20472;-72
2021/06/07 00:07:59;;;;;;;1.40;1.27;;;14.70;99.90;;;;;;4974220;28;20023;-71
2021/06/07 00:10:25;;;;;;;1.85;1.25;;;14.70;99.90;;;;;;4974182;28;20495;-73
2021/06/07 00:12:51;;;;;;;2.15;1.15;;;14.70;99.90;;;;;;4974859;28;20030;-71
2021/06/07 00:15:19;;;;;;;2.03;1.02;;;14.60;99.90;;;;;;4974546;28;20419;-71
2021/06/07 00:17:44;;;;;;;2.85;1.30;;;14.60;99.90;;;;;;4974497;28;20073;-72
2021/06/07 00:20:14;;;;;;;2.95;1.38;;;14.50;99.90;;;;;;4973916;28;20086;-71
2021/06/07 00:22:39;;;;;;;4.18;1.17;;;14.50;99.90;;;;;;4974268;28;20122;-71
2021/06/07 00:25:07;;;;;;;2.17;1.25;;;14.50;99.90;;;;;;4973612;28;20027;-72
2021/06/07 00:27:33;;;;;;;5.57;1.00;;;14.40;99.90;;;;;;4973380;28;20039;-71
2021/06/07 00:29:59;;;;;;;3.60;1.08;;;14.30;99.90;;;;;;4973686;28;20519;-71
2021/06/07 00:32:24;;;;;;;2.25;1.38;;;14.30;99.90;;;;;;4974336;28;20103;-70
2021/06/07 00:34:50;;;;;;;2.30;2.10;;;14.30;99.90;;;;;;4974012;28;20031;-71
2021/06/07 00:37:16;;;;;;;2.38;1.50;;;14.30;99.90;;;;;;4972474;28;20026;-72
2021/06/07 00:39:41;;;;;;;3.70;1.77;;;14.40;99.90;;;;;;4973512;28;20125;-70
2021/06/07 00:42:08;;;;;;;4.45;1.13;;;14.40;99.90;;;;;;4973472;28;20082;-71
2021/06/07 00:44:33;;;;;;;3.50;1.33;;;14.40;99.90;;;;;;4974527;28;20030;-72
2021/06/07 00:46:59;;;;;;;1.52;1.30;;;14.40;99.90;;;;;;4974149;28;20526;-72
2021/06/07 00:49:25;;;;;;;1.30;1.27;;;14.40;99.90;;;;;;4970512;28;20043;-72
2021/06/07 00:51:50;;;;;;;2.80;1.10;;;14.40;99.90;;;;;;4972404;28;20397;-71
2021/06/07 00:54:17;;;;;;;2.40;1.48;;;14.50;99.90;;;;;;4974069;28;20439;-71
2021/06/07 00:56:43;;;;;;;3.13;1.10;;;14.40;99.90;;;;;;4973889;28;20027;-71
2021/06/07 00:59:09;;;;;;;1.33;1.23;;;14.30;99.90;;;;;;4970810;28;20019;-72
2021/06/07 01:01:35;;;;;;;1.25;1.13;;;14.30;99.90;;;;;;4973489;28;20038;-72
2021/06/07 01:04:02;;;;;;;2.10;1.33;;;14.30;99.90;;;;;;4973534;28;20022;-71
2021/06/07 01:06:29;;;;;;;1.30;1.20;;;14.20;99.90;;;;;;4971989;28;20038;-72
2021/06/07 01:08:55;;;;;;;1.23;1.15;;;14.20;99.90;;;;;;4972845;28;20360;-73
2021/06/07 01:11:21;;;;;;;2.83;1.02;;;14.20;99.90;;;;;;4974039;28;20042;-71
2021/06/07 01:13:48;;;;;;;3.67;1.60;;;14.10;99.90;;;;;;4972025;28;20062;-72
2021/06/07 01:16:15;;;;;;;1.30;1.30;;;14.10;99.90;;;;;;4973512;28;20041;-72
2021/06/07 01:18:41;;;;;;;1.35;1.25;;;14.10;99.90;;;;;;4972872;28;20118;-71
2021/06/07 01:21:13;;;;;;;2.30;1.33;;;14.10;99.90;;;;;;4973222;28;20015;-71
2021/06/07 01:23:40;;;;;;;2.40;1.40;;;14.10;99.90;;;;;;4973497;28;20110;-72
2021/06/07 01:26:07;;;;;;;1.10;1.10;;;14.00;99.90;;;;;;4973320;28;20093;-71
2021/06/07 01:28:34;;;;;;;2.75;1.40;;;14.00;99.90;;;;;;4973171;28;20452;-72
2021/06/07 01:31:00;;;;;;;2.38;1.17;;;13.90;99.90;;;;;;4972094;28;20023;-72
2021/06/07 01:33:27;;;;;;;1.98;1.50;;;13.80;99.90;;;;;;4973471;28;20467;-71
2021/06/07 01:35:54;;;;;;;1.92;1.05;;;13.80;99.90;;;;;;4971516;28;20077;-71
2021/06/07 01:38:21;;;;;;;;;;;13.80;99.90;;;;;;4972940;28;20049;-72
2021/06/07 01:40:50;;;;;;;2.45;1.38;;;13.80;99.90;;;;;;4973022;28;19921;-71
2021/06/07 01:43:16;;;;;;;2.47;1.45;;;13.80;99.90;;;;;;4971178;28;20109;-73
2021/06/07 01:45:44;;;;;;;1.95;1.23;;;13.80;99.90;;;;;;4973340;28;20109;-71
2021/06/07 01:48:12;;;;;;;1.77;1.65;;;13.80;99.90;;;;;;4972463;28;20039;-71
2021/06/07 01:50:37;;;;;;;;;;;13.80;99.90;;;;;;4972537;28;20054;-71
2021/06/07 01:53:05;;;;;;;1.30;1.20;;;13.80;99.90;;;;;;4974519;28;19968;-72
2021/06/07 01:55:34;;;;;;;4.85;1.25;;;13.70;99.90;;;;;;4978070;28;20109;-72
2021/06/07 01:58:00;;;;;;;3.08;1.67;;;13.70;99.90;;;;;;4978305;28;20418;-72
2021/06/07 02:00:37;;;;;;;1.27;1.17;;;13.70;99.90;;;;;;4977282;28;20031;-71
2021/06/07 02:03:04;;;;;;;2.83;1.70;;;13.70;99.90;;;;;;4977485;28;20470;-72
2021/06/07 02:05:32;;;;;;;2.03;1.50;;;13.60;99.90;;;;;;4978903;28;20030;-72
2021/06/07 02:08:00;;;;;;;3.95;1.70;;;13.60;99.90;;;;;;4977351;28;20022;-72
2021/06/07 02:10:29;;;;;;;2.00;1.55;;;13.60;99.90;;;;;;4977899;28;20124;-71
2021/06/07 02:12:55;;;;;;;2.25;1.40;;;13.60;99.90;;;;;;4973926;28;20045;-72
2021/06/07 02:15:21;;;;;;;1.80;1.65;;;13.60;99.90;;;;;;4984944;28;20086;-70
2021/06/07 02:17:47;;;;;;;4.90;1.50;;;13.50;99.90;;;;;;4985489;28;20019;-70
2021/06/07 02:20:16;;;;;;;1.80;1.70;;;13.50;99.90;;;;;;4987763;28;20038;-72
2021/06/07 02:22:44;;;;;;;1.55;1.45;;;13.50;99.90;;;;;;4991291;28;20486;-71
2021/06/07 02:25:14;;;;;;;1.77;1.55;;;13.50;99.90;;;;;;4987558;28;20033;-71
2021/06/07 02:27:41;;;;;;;1.98;1.88;;;13.40;99.90;;;;;;4991237;28;20083;-72
2021/06/07 02:30:14;;;;;;;2.58;1.80;;;13.40;99.90;;;;;;4990716;28;20027;-71
2021/06/07 02:32:40;;;;;;;3.08;1.70;;;13.40;99.90;;;;;;4991499;28;20034;-71
2021/06/07 02:35:08;;;;;;;2.70;1.60;;;13.40;99.90;;;;;;4990214;28;20031;-70
2021/06/07 02:37:35;;;;;;;2.92;1.65;;;13.30;99.90;;;;;;4988839;28;20035;-70
2021/06/07 02:40:03;;;;;;;4.95;2.05;;;13.30;99.90;;;;;;5005424;28;20039;-70
2021/06/07 02:42:28;;;;;;;8.45;1.90;;;13.30;99.90;;;;;;4983810;28;20088;-71
2021/06/07 02:44:54;;;;;;;2.13;1.85;;;13.30;99.90;;;;;;4978229;28;20086;-72
2021/06/07 02:47:20;;;;;;;3.63;1.90;;;13.30;99.90;;;;;;4977871;28;20026;-71
2021/06/07 02:49:45;;;;;;;2.42;1.63;;;13.30;99.90;;;;;;4980123;28;20464;-71
2021/06/07 02:52:11;;;;;;;2.40;2.20;;;13.20;99.90;;;;;;4978635;28;20050;-71
2021/06/07 02:54:37;;;;;;;2.97;2.30;;;13.20;99.90;;;;;;4979328;28;20031;-72
2021/06/07 02:57:04;;;;;;;3.70;1.98;;;13.20;99.90;;;;;;4978968;28;20035;-72
2021/06/07 02:59:30;;;;;;;1.67;1.57;;;13.20;99.90;;;;;;4979311;28;20085;-71
2021/06/07 03:01:55;;;;;;;2.40;2.20;;;13.20;99.90;;;;;;4976648;28;20659;-71
2021/06/07 03:04:21;;;;;;;2.72;2.05;;;13.20;99.90;;;;;;4977109;28;20119;-72
2021/06/07 03:06:46;;;;;;;2.92;1.95;;;13.10;99.90;;;;;;4976291;28;20078;-71
2021/06/07 03:09:12;;;;;;;1.92;1.83;;;13.10;99.90;;;;;;4975322;28;20399;-71
2021/06/07 03:11:38;;;;;;;1.80;1.70;;;13.10;99.90;;;;;;4976381;28;20105;-72
2021/06/07 03:14:03;;;;;;;2.75;2.00;;;13.10;99.90;;;;;;4975313;28;20026;-72
2021/06/07 03:16:29;;;;;;;3.67;2.00;;;13.10;99.90;;;;;;4975985;28;20027;-72
2021/06/07 03:18:55;;;;;;;2.95;2.08;;;13.10;99.90;;;;;;4975903;28;20038;-72
2021/06/07 03:21:20;;;;;;;2.30;1.88;;;13.10;99.90;;;;;;4976484;28;20432;-72
2021/06/07 03:23:47;;;;;;;1.90;1.75;;;13.10;99.90;;;;;;4975337;28;20035;-72
2021/06/07 03:26:13;;;;;;;9.27;2.30;;;13.10;99.90;;;;;;4974606;28;20146;-72
2021/06/07 03:28:39;;;;;;;5.30;2.97;;;13.10;99.90;;;;;;4975143;28;20464;-72
2021/06/07 03:31:07;;;;;;;5.50;2.60;;;13.10;99.90;;;;;;4975779;28;20023;-71
2021/06/07 03:33:33;;;;;;;5.00;2.50;;;13.10;99.90;;;;;;4975358;28;20034;-71
2021/06/07 03:36:18;;;;;;;4.20;2.33;;;13.00;99.90;;;;;;4974546;28;20058;-72
2021/06/07 03:38:44;;;;;;;4.55;3.25;;;13.00;99.90;;;;;;4974711;28;20047;-73
2021/06/07 03:41:09;;;;;;;24.40;5.72;;;13.00;99.90;;;;;;4974927;28;20093;-73
2021/06/07 03:43:37;;;;;;;5.35;2.80;;;13.10;99.90;;;;;;4975355;28;20110;-72
2021/06/07 03:46:04;;;;;;;7.57;2.55;;;13.10;99.90;;;;;;4974360;28;20038;-72
2021/06/07 03:48:29;;;;;;;2.60;2.40;;;13.10;99.90;;;;;;4975456;28;20074;-72
2021/06/07 03:50:56;;;;;;;2.75;1.80;;;13.10;99.90;;;;;;4976346;28;20463;-71
2021/06/07 03:53:21;;;;;;;4.38;2.28;;;13.00;99.90;;;;;;4976349;28;20391;-71
2021/06/07 03:55:48;;;;;;;4.43;2.97;;;13.00;99.90;;;;;;4975392;28;20102;-72
2021/06/07 03:58:14;;;;;;;7.45;2.53;;;13.00;99.90;;;;;;4973700;28;20061;-72
2021/06/07 04:00:40;;;;;;;3.15;2.17;;;13.00;99.90;;;;;;4972997;28;20550;-72
2021/06/07 04:03:06;;;;;;;2.67;2.30;;;13.00;99.90;;;;;;4974573;28;20050;-71
2021/06/07 04:05:35;;;;;;;2.85;2.17;;;13.00;99.90;;;;;;4974233;28;20094;-71
2021/06/07 04:08:01;;;;;;;5.35;2.15;;;13.00;99.90;;;;;;4974406;28;20054;-72
2021/06/07 04:10:28;;;;;;;3.53;2.42;;;13.00;99.90;;;;;;4974218;28;20030;-71
2021/06/07 04:12:55;;;;;;;2.10;2.00;;;13.00;99.90;;;;;;4973706;28;20492;-71
2021/06/07 04:15:26;;;;;;;2.50;2.10;;;13.00;99.90;;;;;;4972716;28;20030;-71
2021/06/07 04:17:53;;;;;;;6.45;2.60;;;13.00;99.90;;;;;;4973144;28;20030;-71
2021/06/07 04:20:22;;;;;;;3.83;2.33;;;13.00;99.90;;;;;;4974124;28;20019;-71
2021/06/07 04:22:48;;;;;;;3.58;2.25;;;13.10;99.90;;;;;;4974142;28;20031;-71
2021/06/07 04:25:18;;;;;;;2.95;2.30;;;13.10;99.90;;;;;;4973443;28;20411;-71
2021/06/07 04:27:45;;;;;;;2.78;2.50;;;13.10;99.90;;;;;;4973385;28;20399;-71
2021/06/07 04:30:13;;;;;;;6.88;3.05;;;13.20;99.90;;;;;;4973769;28;20026;-72
2021/06/07 04:32:40;;;;;;;5.95;2.63;;;13.20;99.90;;;;;;4971670;28;20035;-71
2021/06/07 04:35:08;;;;;;;2.80;2.42;;;13.30;99.90;;;;;;4972928;28;20425;-71
2021/06/07 04:37:39;;;;;;;;;;;13.30;99.90;;;;;;4974316;28;20027;-71
2021/06/07 04:40:06;;;;;;;4.00;1.98;;;13.40;99.90;;;;;;4972798;28;19925;-71
2021/06/07 04:42:31;;;;;;;19.08;3.42;;;13.40;99.90;;;;;;4973913;28;20027;-71
2021/06/07 04:44:57;;;;;;;2.78;2.13;;;13.50;99.90;;;;;;4973864;28;20494;-71
2021/06/07 04:47:22;;;;;;;8.18;3.00;;;13.50;99.90;;;;;;4972504;28;20035;-71
2021/06/07 04:49:48;;;;;;;3.17;1.80;;;13.60;99.90;;;;;;4972473;28;20078;-72
2021/06/07 04:52:13;;;;;;;1.98;1.85;;;13.70;99.90;;;;;;4972166;28;20502;-72
2021/06/07 04:54:39;;;;;;;2.22;2.03;;;13.70;99.90;;;;;;4973364;28;20066;-72
2021/06/07 04:57:05;;;;;;;4.22;1.95;;;13.80;99.90;;;;;;4972274;28;20019;-71
2021/06/07 04:59:31;;;;;;;6.40;2.28;;;13.80;99.90;;;;;;4973446;28;20042;-71
2021/06/07 05:01:56;;;;;;;3.17;1.77;;;13.90;99.90;;;;;;4973550;28;20023;-73
2021/06/07 05:04:22;;;;;;;3.10;1.77;;;13.90;99.90;;;;;;4972739;28;20510;-71
2021/06/07 05:06:47;;;;;;;2.20;1.50;;;14.00;99.90;;;;;;4972477;28;20027;-71
2021/06/07 05:09:13;;;;;;;2.35;1.88;;;14.00;99.90;;;;;;4973811;28;20030;-71
2021/06/07 05:11:41;;;;;;;4.10;1.75;;;14.10;99.90;;;;;;4971737;28;20026;-71
2021/06/07 05:14:06;;;;;;;2.50;1.88;;;14.20;99.90;;;;;;4972627;28;20026;-72
2021/06/07 05:16:32;;;;;;;4.32;2.42;;;14.30;99.90;;;;;;4973146;28;20543;-71
2021/06/07 05:18:58;;;;;;;4.32;1.50;;;14.40;99.90;;;;;;4972792;28;20073;-71
2021/06/07 05:21:23;;;;;;;4.97;2.28;;;14.50;99.90;;;;;;4972373;28;20128;-71
2021/06/07 05:23:49;;;;;;;3.75;2.38;;;14.70;99.90;;;;;;4973447;28;20015;-71
2021/06/07 05:26:14;;;;;;;3.05;1.85;;;14.70;99.90;;;;;;4972903;28;20023;-72
2021/06/07 05:28:40;;;;;;;2.78;2.03;;;14.90;99.90;;;;;;4971620;28;20030;-71
2021/06/07 05:31:05;;;;;;;12.05;2.28;;;14.90;99.90;;;;;;4974477;28;20026;-71
2021/06/07 05:33:31;;;;;;;4.18;1.83;;;15.00;99.90;;;;;;4977558;28;20107;-72
2021/06/07 05:35:58;;;;;;;3.35;1.50;;;15.20;99.90;;;;;;4980482;28;20092;-73
2021/06/07 05:38:24;;;;;;;2.90;1.70;;;15.30;99.90;;;;;;4988547;28;20481;-71
2021/06/07 05:40:53;;;;;;;2.90;2.17;;;15.40;99.90;;;;;;4978252;28;20070;-71
2021/06/07 05:43:22;;;;;;;5.22;1.70;;;15.30;99.90;;;;;;4978873;28;20034;-72
2021/06/07 05:45:48;;;;;;;2.95;1.50;;;15.40;99.90;;;;;;4987446;28;20026;-72
2021/06/07 05:48:14;;;;;;;7.00;1.40;;;15.60;99.90;;;;;;4981926;28;20042;-72
2021/06/07 05:50:40;;;;;;;4.32;1.52;;;15.60;99.90;;;;;;4978096;28;20023;-72
2021/06/07 05:53:07;;;;;;;9.27;1.40;;;15.60;99.90;;;;;;4978642;28;20022;-71
2021/06/07 05:55:39;;;;;;;2.17;1.27;;;15.70;99.90;;;;;;4972836;28;20031;-72
2021/06/07 05:58:07;;;;;;;3.13;1.70;;;15.90;99.90;;;;;;4992770;28;20031;-71
2021/06/07 06:00:36;;;;;;;1.63;1.00;;;16.30;99.90;;;;;;4978203;28;20023;-71
2021/06/07 06:03:02;;;;;;;1.38;1.17;;;16.80;99.90;;;;;;4979779;28;20030;-72
2021/06/07 06:05:27;;;;;;;4.18;1.30;;;17.60;99.90;;;;;;4983682;28;20384;-72
2021/06/07 06:07:53;;;;;;;1.45;1.08;;;18.50;99.90;;;;;;4978091;28;20102;-71
2021/06/07 06:10:19;;;;;;;3.35;1.08;;;20.80;99.90;;;;;;4973953;28;20550;-70
2021/06/07 06:12:46;;;;;;;3.45;1.60;;;22.50;98.90;;;;;;4980924;28;20475;-71
2021/06/07 06:15:13;;;;;;;15.05;1.65;;;22.00;98.80;;;;;;4973963;28;20030;-71
2021/06/07 06:17:39;;;;;;;2.72;1.25;;;21.50;99.60;;;;;;4974328;28;20070;-71
2021/06/07 06:20:06;;;;;;;3.38;0.93;;;23.00;98.60;;;;;;4971282;28;20047;-71
2021/06/07 06:22:32;;;;;;;0.98;0.80;;;25.00;96.70;;;;;;4973729;28;20049;-72
2021/06/07 06:24:58;;;;;;;4.03;1.02;;;26.30;94.30;;;;;;4976534;28;20031;-71
2021/06/07 06:27:24;;;;;;;1.40;0.70;;;27.00;92.70;;;;;;4975168;28;20030;-70
2021/06/07 06:29:50;;;;;;;1.90;0.88;;;27.30;91.90;;;;;;4978895;28;20026;-71
2021/06/07 06:32:16;;;;;;;3.35;1.00;;;27.90;91.60;;;;;;4975672;28;20041;-71
2021/06/07 06:34:42;;;;;;;1.40;0.93;;;28.90;90.60;;;;;;4978933;28;20042;-71
2021/06/07 06:37:09;;;;;;;2.38;1.13;;;29.40;89.70;;;;;;4977397;28;20030;-71
2021/06/07 06:39:34;;;;;;;1.13;0.97;;;29.20;88.30;;;;;;4973337;28;20058;-71
2021/06/07 06:42:00;;;;;;;2.72;1.30;;;28.60;88.00;;;;;;4974219;28;20286;-68
2021/06/07 06:44:26;;;;;;;5.60;1.20;;;27.90;89.10;;;;;;4977959;28;20431;-71
2021/06/07 06:46:52;;;;;;;4.35;1.20;;;27.30;89.60;;;;;;4977110;28;20081;-72
2021/06/07 06:49:17;;;;;;;0.90;0.85;;;26.90;89.70;;;;;;4977596;28;20054;-72
2021/06/07 06:51:43;;;;;;;1.67;1.08;;;27.00;90.00;;;;;;4978025;28;20023;-71
2021/06/07 06:54:10;;;;;;;5.65;1.90;;;26.60;90.30;;;;;;4977631;28;20495;-70
2021/06/07 06:56:35;;;;;;;1.50;1.00;;;26.40;90.50;;;;;;4977332;28;20027;-72
2021/06/07 06:59:02;;;;;;;11.32;1.05;;;25.80;90.90;;;;;;4977169;28;20023;-70
2021/06/07 07:01:29;;;;;;;1.13;0.90;;;24.40;92.40;;;;;;4977663;28;20027;-71
2021/06/07 07:03:54;;;;;;;2.53;1.13;;;22.90;93.10;;;;;;4977749;28;20383;-72
2021/06/07 07:06:24;;;;;;;2.72;0.95;;;21.80;93.90;;;;;;4977709;28;20046;-72
2021/06/07 07:08:50;;;;;;;1.17;0.60;;;21.60;94.40;;;;;;4977999;28;20050;-72
2021/06/07 07:11:16;;;;;;;4.57;0.98;;;22.10;94.30;;;;;;4985379;28;20038;-75
2021/06/07 07:13:42;;;;;;;6.78;1.20;;;22.90;93.70;;;;;;4999602;28;20063;-76
2021/06/07 07:16:07;;;;;;;6.07;0.80;;;23.80;92.90;;;;;;4998390;28;20082;-75
2021/06/07 07:18:33;;;;;;;0.90;0.82;;;24.40;91.90;;;;;;5000984;28;20015;-76
2021/06/07 07:20:59;;;;;;;1.00;0.60;;;24.50;91.00;;;;;;4999401;28;20026;-75
2021/06/07 07:23:24;;;;;;;0.70;0.65;;;24.70;91.00;;;;;;4991982;28;20043;-75
2021/06/07 07:25:50;;;;;;;4.32;1.40;;;25.30;91.00;;;;;;4984300;28;20050;-76
2021/06/07 07:28:17;;;;;;;1.15;0.90;;;25.10;91.20;;;;;;4983823;28;20030;-75
2021/06/07 07:30:44;;;;;;;3.30;1.27;;;24.80;91.40;;;;;;4983047;28;20054;-80
2021/06/07 07:33:10;;;;;;;0.73;0.73;;;25.20;91.50;;;;;;4980087;28;20033;-76
2021/06/07 07:35:36;;;;;;;4.50;1.35;;;25.20;91.30;;;;;;4984998;28;20022;-76
2021/06/07 07:38:03;;;;;;;3.08;1.10;;;25.10;91.20;;;;;;4979803;28;20027;-76
2021/06/07 07:40:29;;;;;;;2.47;1.10;;;24.80;91.30;;;;;;4980261;28;20035;-75
2021/06/07 07:42:58;;;;;;;0.82;0.82;;;24.00;91.90;;;;;;4983621;28;20382;-75
2021/06/07 07:45:27;;;;;;;4.38;0.93;;;23.50;92.30;;;;;;4991301;28;20048;-77
2021/06/07 07:47:54;;;;;;;2.15;1.27;;;22.90;92.90;;;;;;4987700;28;20066;-77
2021/06/07 07:50:20;;;;;;;1.98;0.85;;;22.50;93.40;;;;;;4970825;28;20030;-76
2021/06/07 07:52:47;;;;;;;3.50;1.38;;;21.90;93.50;;;;;;4973505;28;20027;-77
2021/06/07 07:55:17;;;;;;;1.05;0.90;;;21.60;94.30;;;;;;4976374;28;20534;-76
2021/06/07 07:57:43;;;;;;;4.18;0.90;;;21.70;93.90;;;;;;4969440;28;20035;-74
2021/06/07 08:00:11;;;;;;;2.83;1.00;;;21.40;94.00;;;;;;4972440;28;20395;-74
2021/06/07 08:02:37;;;;;;;2.33;0.93;;;21.20;94.70;;;;;;4969523;28;20034;-76
2021/06/07 08:05:04;;;;;;;3.42;1.02;;;21.20;93.90;;;;;;4972713;28;20042;-75
2021/06/07 08:07:29;;;;;;;2.85;0.77;;;21.10;94.30;;;;;;4976907;28;20018;-77
2021/06/07 08:10:14;;;;;;;1.63;0.80;;;21.10;95.20;;;;;;4975190;28;20077;-77
2021/06/07 08:12:41;;;;;;;2.53;1.20;;;21.60;94.60;;;;;;4976514;28;20034;-78
2021/06/07 08:15:08;;;;;;;5.47;1.10;;;21.50;94.50;;;;;;4973773;28;20023;-79
2021/06/07 08:17:34;;;;;;;2.45;1.70;;;21.30;94.90;;;;;;4970906;28;20058;-76
2021/06/07 08:20:00;;;;;;;2.47;1.35;;;21.70;94.60;;;;;;4974772;28;20054;-79
2021/06/07 08:22:25;;;;;;;7.38;1.55;;;21.90;94.30;;;;;;4976376;28;20023;-74
2021/06/07 08:24:51;;;;;;;2.65;1.05;;;22.00;95.10;;;;;;4972777;28;20085;-79
2021/06/07 08:27:17;;;;;;;4.88;0.90;;;22.10;94.70;;;;;;4974458;28;20129;-79
2021/06/07 08:29:42;;;;;;;5.22;1.00;;;22.40;94.50;;;;;;4972768;28;20484;-79
2021/06/07 08:32:08;;;;;;;4.90;1.20;;;23.10;94.10;;;;;;4972253;28;20031;-80
2021/06/07 08:34:35;;;;;;;2.63;0.82;;;23.80;93.50;;;;;;4970404;28;20023;-77
2021/06/07 08:37:00;;;;;;;3.60;0.95;;;23.70;92.60;;;;;;4979936;28;20026;-79
2021/06/07 08:39:26;;;;;;;3.42;0.85;;;23.60;93.00;;;;;;4980618;28;20074;-79
2021/06/07 08:41:52;;;;;;;3.05;1.35;;;24.30;92.50;;;;;;4982817;28;20037;-79
2021/06/07 08:44:18;;;;;;;1.45;0.75;;;24.40;92.30;;;;;;4975101;28;20039;-79
2021/06/07 08:46:45;;;;;;;4.90;1.25;;;24.40;92.10;;;;;;4970147;28;20018;-79
2021/06/07 08:49:11;;;;;;;2.63;1.10;;;23.90;92.20;;;;;;4965856;28;20115;-79
2021/06/07 08:51:37;;;;;;;2.80;1.08;;;24.10;92.10;;;;;;4966144;28;20121;-78
2021/06/07 08:54:02;;;;;;;1.75;1.13;;;24.10;91.40;;;;;;4967306;28;22801;-79
2021/06/07 08:56:28;;;;;;;2.72;0.88;;;23.90;91.80;;;;;;4966445;28;20118;-78
2021/06/07 08:58:54;;;;;;;3.45;0.90;;;24.50;91.40;;;;;;4966098;28;20046;-77
2021/06/07 09:01:19;;;;;;;1.45;0.80;;;24.90;90.70;;;;;;4967051;28;20027;-79
2021/06/07 09:03:45;;;;;;;1.30;0.80;;;25.10;90.00;;;;;;4965264;28;20122;-78
2021/06/07 09:06:11;;;;;;;2.05;0.70;;;25.60;89.70;;;;;;4966399;28;20066;-79
2021/06/07 09:08:38;;;;;;;3.25;1.10;;;25.90;89.50;;;;;;4966781;28;20081;-79
2021/06/07 09:11:12;;;;;;;3.15;0.80;;;25.20;89.30;;;;;;4967688;28;20033;-79
2021/06/07 09:13:38;;;;;;;2.13;0.90;;;25.30;89.60;;;;;;4979261;28;20109;-78
2021/06/07 09:16:05;;;;;;;2.23;0.83;;;25.30;87.50;;;;;;4981540;28;20080;-78
2021/06/07 09:18:39;;;;;;;2.75;1.00;;;24.80;90.00;;;;;;4981410;28;20073;-79
2021/06/07 09:21:13;;;;;;;1.10;0.60;;;25.00;90.10;;;;;;4975954;28;20415;-79
2021/06/07 09:23:53;;;;;;;1.83;1.05;;;25.20;89.80;;;;;;4976260;28;20105;-79
2021/06/07 09:26:23;;;;;;;5.07;1.10;;;24.60;89.80;;;;;;4976321;28;20033;-79
2021/06/07 09:28:50;;;;;;;2.72;0.90;;;23.70;90.60;;;;;;4975236;28;20027;-78
2021/06/07 09:31:16;;;;;;;4.55;1.17;;;23.50;91.10;;;;;;4975980;28;20027;-78
2021/06/07 09:33:47;;;;;;;3.28;1.20;;;23.80;90.80;;;;;;4980855;28;20027;-79
2021/06/07 09:36:22;;;;;;;3.78;1.02;;;23.50;91.10;;;;;;4982261;28;20041;-78
2021/06/07 09:39:03;;;;;;;8.13;1.25;;;22.90;91.50;;;;;;4972983;28;20038;-75
2021/06/07 09:41:58;;;;;;;4.20;1.40;;;22.50;92.60;;;;;;4980651;28;20408;-87
2021/06/07 09:44:36;;;;;;;2.78;0.98;;;22.60;92.20;;;;;;4956010;28;20031;-81
2021/06/07 09:47:25;;;;;;;2.72;0.95;;;22.40;92.30;;;;;;4974423;28;20030;-81
2021/06/07 09:50:02;;;;;;;7.13;1.00;;;22.50;92.60;;;;;;4982588;28;20092;-80
2021/06/07 09:52:45;;;;;;;5.00;1.35;;;22.60;92.40;;;;;;4975429;28;20110;-81
2021/06/07 09:55:23;;;;;;;2.45;0.95;;;22.90;92.10;;;;;;4974185;28;20023;-80
2021/06/07 09:57:55;;;;;;;4.40;1.20;;;22.90;92.00;;;;;;4962350;28;20031;-78
2021/06/07 10:00:42;;;;;;;3.53;1.23;;;23.00;91.70;;;;;;4966056;28;20480;-81
2021/06/07 10:03:26;;;;;;;3.33;0.90;;;23.50;91.30;;;;;;4963521;28;20122;-77
2021/06/07 10:05:58;;;;;;;1.55;0.90;;;23.70;91.80;;;;;;4974970;28;20027;-78
2021/06/07 10:08:26;;;;;;;2.47;1.08;;;24.80;91.40;;;;;;4974035;28;20054;-78
2021/06/07 10:10:54;;;;;;;6.65;1.20;;;25.10;90.40;;;;;;4974358;28;20092;-78
2021/06/07 10:13:20;;;;;;;2.25;1.38;;;25.60;90.30;;;;;;4978686;28;20121;-78
2021/06/07 10:15:50;;;;;;;4.05;1.48;;;25.90;89.40;;;;;;4979503;28;20117;-77
2021/06/07 10:18:19;;;;;;;6.57;1.23;;;26.20;89.70;;;;;;4982523;28;20038;-78
2021/06/07 10:20:50;;;;;;;2.33;1.10;;;25.50;90.20;;;;;;4976217;28;20029;-78
2021/06/07 10:23:21;;;;;;;2.45;1.02;;;25.10;90.40;;;;;;4974227;28;20031;-78
2021/06/07 10:25:48;;;;;;;1.20;0.90;;;25.30;90.60;;;;;;4973780;28;20026;-75
2021/06/07 10:28:14;;;;;;;2.57;1.20;;;25.70;90.60;;;;;;4971141;28;20035;-76
2021/06/07 10:30:43;;;;;;;3.38;1.98;;;25.20;89.80;;;;;;4971641;28;20039;-76
2021/06/07 10:33:29;;;;;;;2.88;1.25;;;24.40;90.70;;;;;;4970647;28;20042;-75
2021/06/07 10:35:56;;;;;;;2.25;1.50;;;24.60;91.30;;;;;;4974526;28;20035;-76
2021/06/07 10:38:34;;;;;;;2.72;1.60;;;24.90;90.90;;;;;;4973159;28;20184;-73
2021/06/07 10:41:18;;;;;;;3.30;1.63;;;25.80;89.50;;;;;;4974518;28;20026;-75
2021/06/07 10:43:49;;;;;;;5.80;1.73;;;25.10;90.10;;;;;;4975706;28;20046;-74
2021/06/07 10:46:32;;;;;;;1.73;1.20;;;25.00;90.60;;;;;;4967118;28;20042;-73
2021/06/07 10:48:59;;;;;;;3.35;1.20;;;24.90;90.50;;;;;;4965770;28;20035;-73
2021/06/07 10:51:28;;;;;;;2.42;1.63;;;24.20;91.20;;;;;;4970844;28;20035;-74
2021/06/07 10:54:24;;;;;;;4.95;1.58;;;23.90;92.00;;;;;;4966642;28;20046;-73
2021/06/07 10:56:51;;;;;;;3.97;1.10;;;23.60;91.90;;;;;;4970462;28;20039;-74
2021/06/07 10:59:16;;;;;;;2.58;1.38;;;23.80;92.40;;;;;;4972819;28;20034;-75
2021/06/07 11:01:59;;;;;;;2.00;1.65;;;23.90;91.70;;;;;;4972988;28;20039;-74
2021/06/07 11:04:35;;;;;;;1.67;1.13;;;23.90;92.20;;;;;;4972098;28;20108;-76
2021/06/07 11:07:18;;;;;;;3.42;1.58;;;23.90;92.40;;;;;;4973078;28;20771;-73
2021/06/07 11:10:09;;;;;;;6.00;1.60;;;23.70;92.50;;;;;;4985831;28;20041;-75
2021/06/07 11:12:37;;;;;;;3.97;1.30;;;23.90;92.80;;;;;;4976355;28;20031;-74
2021/06/07 11:15:47;;;;;;;9.30;1.77;;;23.90;92.30;;;;;;4977506;28;20439;-75
2021/06/07 11:18:37;;;;;;;3.95;1.77;;;24.00;92.10;;;;;;4976063;28;20126;-75
2021/06/07 11:21:25;;;;;;;4.47;1.20;;;24.10;92.20;;;;;;4977155;28;20034;-75
2021/06/07 11:23:51;;;;;;;3.40;1.38;;;24.00;92.50;;;;;;4991560;28;20483;-75
2021/06/07 11:26:33;;;;;;;4.00;1.48;;;23.70;92.20;;;;;;4976486;28;20059;-75
2021/06/07 11:29:01;;;;;;;1.77;1.45;;;23.50;92.80;;;;;;4975351;28;20047;-75
2021/06/07 11:31:33;;;;;;;4.20;1.52;;;23.40;93.30;;;;;;4977863;28;20081;-75
2021/06/07 11:34:12;;;;;;;4.68;1.50;;;23.50;93.00;;;;;;4977464;28;20383;-75
2021/06/07 11:36:49;;;;;;;1.73;1.15;;;23.70;92.90;;;;;;4976930;28;20034;-75
2021/06/07 11:39:29;;;;;;;1.45;1.20;;;23.60;92.50;;;;;;4975768;28;20046;-75
2021/06/07 11:42:00;;;;;;;1.38;1.27;;;23.70;92.40;;;;;;4977225;28;20023;-75
2021/06/07 11:44:46;;;;;;;1.83;1.30;;;23.80;93.30;;;;;;4976994;28;20042;-75
2021/06/07 11:47:19;;;;;;;2.10;1.05;;;23.80;91.50;;;;;;4976328;28;20405;-75
2021/06/07 11:49:56;;;;;;;7.63;1.95;;;23.90;92.20;;;;;;4976286;28;20034;-74
2021/06/07 11:52:47;;;;;;;3.13;1.10;;;24.00;91.80;;;;;;4976346;28;20042;-74
2021/06/07 11:55:28;;;;;;;6.18;1.25;;;23.90;91.10;;;;;;4977379;28;20019;-74
2021/06/07 11:58:10;;;;;;;1.88;1.50;;;23.90;91.20;;;;;;4977127;28;20027;-75
2021/06/07 12:00:42;;;;;;;1.92;1.52;;;23.80;92.00;;;;;;4975146;28;20033;-75
2021/06/07 12:03:11;;;;;;;5.10;1.65;;;23.80;92.10;;;;;;4974945;28;20093;-74
2021/06/07 12:05:37;;;;;;;2.80;1.30;;;23.90;92.70;;;;;;4976540;28;20057;-74
2021/06/07 12:08:05;;;;;;;3.17;1.27;;;23.80;91.20;;;;;;4976916;28;20042;-77
2021/06/07 12:10:31;;;;;;;3.30;1.60;;;23.50;91.60;;;;;;4975869;28;20019;-75
2021/06/07 12:13:11;;;;;;;8.43;1.80;;;23.50;92.00;;;;;;4976628;28;20078;-73
2021/06/07 12:15:37;;;;;;;3.45;1.42;;;23.50;92.60;;;;;;4974168;28;20459;-78
2021/06/07 12:18:02;;;;;;;5.75;1.65;;;23.70;93.50;;;;;;4975626;28;20050;-71
2021/06/07 12:20:28;;;;;;;21.20;1.70;;;23.90;92.80;;;;;;4975126;28;20023;-74
2021/06/07 12:22:57;;;;;;;3.45;1.30;;;24.00;91.40;;;;;;4975788;28;20558;-73
2021/06/07 12:28:20;;;;;;;7.32;1.17;;;24.20;91.50;;;;;;4975900;28;20062;-73
2021/06/07 12:30:54;;;;;;;4.65;1.38;;;24.10;92.00;;;;;;4975098;28;20503;-72
2021/06/07 12:33:31;;;;;;;2.35;1.33;;;23.90;92.10;;;;;;4975526;28;20027;-72
2021/06/07 12:35:58;;;;;;;7.15;1.80;;;23.80;91.90;;;;;;4975831;28;20058;-72
2021/06/07 12:38:25;;;;;;;5.82;1.30;;;24.00;91.70;;;;;;4974407;28;20034;-75
2021/06/07 12:40:55;;;;;;;4.25;1.20;;;24.10;91.50;;;;;;4976676;28;20069;-74
2021/06/07 12:43:26;;;;;;;2.85;1.60;;;24.20;91.60;;;;;;4975448;28;20376;-77
2021/06/07 12:45:57;;;;;;;4.63;1.85;;;24.10;92.10;;;;;;4968787;28;20033;-77
2021/06/07 12:48:23;;;;;;;2.38;1.33;;;24.00;91.60;;;;;;4976307;28;20033;-76
2021/06/07 12:50:54;;;;;;;3.75;1.33;;;24.10;91.70;;;;;;4975846;28;20027;-78
2021/06/07 12:53:22;;;;;;;1.70;1.40;;;24.10;91.90;;;;;;4976010;28;20025;-87
2021/06/07 12:55:50;;;;;;;1.80;1.30;;;24.30;91.00;;;;;;4975633;28;20026;-74
2021/06/07 12:58:18;;;;;;;6.03;1.50;;;24.50;91.10;;;;;;4974856;28;20133;-74